createdAt,value
2023-06-07T00:02:03.363Z,102248.34
2023-06-07T00:04:31.326Z,102243.44
2023-06-07T00:07:01.953Z,102249.25
2023-06-07T00:09:30.612Z,102255.91
2023-06-07T00:11:57.364Z,102256.09
2023-06-07T00:14:24.542Z,102266.91
2023-06-07T00:16:55.996Z,102267.03
2023-06-07T00:19:25.989Z,102265.31
2023-06-07T00:21:53.358Z,102264.81
2023-06-07T00:24:20.932Z,102265.31
2023-06-07T00:26:48.112Z,102266.94
2023-06-07T00:29:15.775Z,102264.31
2023-06-07T00:31:42.322Z,102267.69
2023-06-07T00:34:09.427Z,102259.94
2023-06-07T00:36:37.555Z,102254.03
2023-06-07T00:39:04.178Z,102262.28
2023-06-07T00:41:30.836Z,102257.41
2023-06-07T00:43:57.534Z,102260.53
2023-06-07T00:46:29.802Z,102264.91
2023-06-07T00:48:58.556Z,102270.75
2023-06-07T00:51:29.196Z,102263.09
2023-06-07T00:53:59.446Z,102263.94
2023-06-07T00:56:27.446Z,102265.97
2023-06-07T00:58:54.580Z,102269.94
2023-06-07T01:01:21.108Z,102265.56
2023-06-07T01:03:49.200Z,102268.00
2023-06-07T01:06:38.067Z,102263.50
2023-06-07T01:09:14.486Z,102262.59
2023-06-07T01:11:47.509Z,102264.44
2023-06-07T01:14:15.806Z,102256.78
2023-06-07T01:16:47.699Z,102262.63
2023-06-07T01:19:22.386Z,102265.47
2023-06-07T01:21:52.585Z,102268.81
2023-06-07T01:24:19.999Z,102263.00
2023-06-07T01:26:48.843Z,102267.28
2023-06-07T01:29:16.672Z,102258.81
2023-06-07T01:31:44.230Z,102264.22
2023-06-07T01:34:12.474Z,102255.97
2023-06-07T01:36:40.861Z,102254.34
2023-06-07T01:39:09.052Z,102262.91
2023-06-07T01:41:37.107Z,102260.53
2023-06-07T01:44:03.873Z,102259.00
2023-06-07T01:46:30.612Z,102263.50
2023-06-07T01:48:57.201Z,102256.84
2023-06-07T01:51:23.647Z,102257.38
2023-06-07T01:53:53.141Z,102259.22
2023-06-07T01:56:26.929Z,102261.94
2023-06-07T01:59:04.605Z,102251.03
2023-06-07T02:02:02.530Z,102252.75
2023-06-07T02:04:32.272Z,102251.72
2023-06-07T02:07:05.679Z,102253.16
2023-06-07T02:09:36.340Z,102252.94
2023-06-07T02:12:04.141Z,102249.66
2023-06-07T02:14:31.057Z,102249.88
2023-06-07T02:16:57.572Z,102242.00
2023-06-07T02:19:25.570Z,102247.22
2023-06-07T02:21:52.211Z,102246.69
2023-06-07T02:24:18.948Z,102245.88
2023-06-07T02:26:45.859Z,102239.59
2023-06-07T02:29:12.928Z,102243.25
2023-06-07T02:31:39.501Z,102241.09
2023-06-07T02:34:06.620Z,102243.63
2023-06-07T02:36:34.374Z,102235.69
2023-06-07T02:39:03.451Z,102243.41
2023-06-07T02:41:29.999Z,102238.94
2023-06-07T02:43:56.429Z,102237.53
2023-06-07T02:46:23.459Z,102238.66
2023-06-07T02:48:51.156Z,102240.06
2023-06-07T02:51:17.800Z,102247.78
2023-06-07T02:53:45.577Z,102247.50
2023-06-07T02:56:14.482Z,102247.28
2023-06-07T02:58:41.105Z,102247.66
2023-06-07T03:01:08.267Z,102251.56
2023-06-07T03:03:37.729Z,102252.88
2023-06-07T03:06:11.026Z,102248.25
2023-06-07T03:08:39.131Z,102254.56
2023-06-07T03:11:07.987Z,102254.81
2023-06-07T03:13:38.696Z,102253.47
2023-06-07T03:16:09.297Z,102248.59
2023-06-07T03:18:45.843Z,102248.41
2023-06-07T03:21:12.498Z,102250.84
2023-06-07T03:23:40.204Z,102249.41
2023-06-07T03:26:08.581Z,102257.16
2023-06-07T03:28:35.723Z,102250.31
2023-06-07T03:31:04.211Z,102246.25
2023-06-07T03:33:40.253Z,102248.47
2023-06-07T03:36:08.465Z,102249.94
2023-06-07T03:38:36.755Z,102252.41
2023-06-07T03:41:04.131Z,102254.03
2023-06-07T03:43:36.013Z,102251.28
2023-06-07T03:46:02.555Z,102257.38
2023-06-07T03:48:29.511Z,102254.63
2023-06-07T03:50:57.146Z,102257.09
2023-06-07T03:53:23.636Z,102261.97
2023-06-07T03:55:53.253Z,102253.75
2023-06-07T03:58:24.221Z,102254.78
2023-06-07T04:00:50.871Z,102260.56
2023-06-07T04:03:17.519Z,102265.25
2023-06-07T04:05:44.366Z,102263.63
2023-06-07T04:08:12.540Z,102265.47
2023-06-07T04:10:42.031Z,102259.38
2023-06-07T04:13:08.582Z,102264.88
2023-06-07T04:15:35.187Z,102264.59
2023-06-07T04:18:01.770Z,102258.03
2023-06-07T04:20:29.400Z,102258.56
2023-06-07T04:22:57.015Z,102250.84
2023-06-07T04:25:32.839Z,102257.75
2023-06-07T04:28:04.223Z,102254.09
2023-06-07T04:30:42.126Z,102252.97
2023-06-07T04:33:11.747Z,102248.59
2023-06-07T04:35:45.453Z,102254.81
2023-06-07T04:38:23.126Z,102249.31
2023-06-07T04:40:54.133Z,102251.81
2023-06-07T04:43:50.205Z,102261.13
2023-06-07T04:46:23.085Z,102255.13
2023-06-07T04:48:49.639Z,102259.22
2023-06-07T04:51:21.592Z,102264.47
2023-06-07T04:53:50.961Z,102261.13
2023-06-07T04:56:22.668Z,102268.56
2023-06-07T04:58:53.367Z,102261.22
2023-06-07T05:01:23.586Z,102267.22
2023-06-07T05:03:51.780Z,102263.06
2023-06-07T05:06:19.973Z,102262.25
2023-06-07T05:08:50.113Z,102273.25
2023-06-07T05:11:16.634Z,102268.00
2023-06-07T05:13:43.193Z,102265.78
2023-06-07T05:16:16.960Z,102264.94
2023-06-07T05:18:47.651Z,102265.78
2023-06-07T05:21:16.225Z,102269.84
2023-06-07T05:23:44.459Z,102277.81
2023-06-07T05:26:11.864Z,102268.66
2023-06-07T05:28:38.961Z,102275.28
2023-06-07T05:31:05.954Z,102268.44
2023-06-07T05:33:34.324Z,102273.41
2023-06-07T05:36:01.198Z,102266.72
2023-06-07T05:38:28.086Z,102271.03
2023-06-07T05:40:57.848Z,102275.22
2023-06-07T05:43:24.436Z,102274.84
2023-06-07T05:45:50.993Z,102270.88
2023-06-07T05:48:17.676Z,102278.94
2023-06-07T05:50:44.268Z,102279.16
2023-06-07T05:53:10.975Z,102272.97
2023-06-07T05:55:37.739Z,102282.34
2023-06-07T05:58:04.809Z,102275.75
2023-06-07T06:00:32.772Z,102257.75
2023-06-07T06:05:47.725Z,102261.97
2023-06-07T06:08:16.724Z,102261.88
2023-06-07T06:10:45.835Z,102264.84
2023-06-07T06:13:14.662Z,102264.09
2023-06-07T06:15:41.216Z,102263.03
2023-06-07T10:53:01.939Z,102229.84
2023-06-07T10:55:34.065Z,102236.13
2023-06-07T10:58:01.311Z,102233.75
2023-06-07T11:00:36.480Z,102228.19
2023-06-07T11:03:06.239Z,102234.69
2023-06-07T11:05:55.224Z,102235.50
2023-06-07T11:08:29.069Z,102230.69
2023-06-07T11:11:02.686Z,102230.69
2023-06-07T11:13:44.850Z,102233.56
2023-06-07T11:16:23.723Z,102239.63
2023-06-07T11:18:54.685Z,102217.88
2023-06-07T11:21:21.196Z,102228.38
2023-06-07T11:24:14.297Z,102227.56
2023-06-07T11:26:41.797Z,102218.72
2023-06-07T11:29:09.744Z,102222.34
2023-06-07T11:31:36.341Z,102209.84
2023-06-07T11:34:03.676Z,102206.66
2023-06-07T11:36:33.605Z,102202.25
2023-06-07T11:39:07.035Z,102204.22
2023-06-07T11:41:33.722Z,102201.81
2023-06-07T11:44:03.159Z,102202.22
2023-06-07T11:46:33.892Z,102196.56
2023-06-07T11:49:10.879Z,102191.78
2023-06-07T11:51:37.986Z,102194.59
2023-06-07T11:54:04.664Z,102187.75
2023-06-07T11:56:33.296Z,102194.19
2023-06-07T11:59:00.002Z,102186.56
2023-06-07T12:01:28.067Z,102188.97
2023-06-07T12:03:57.087Z,102188.94
2023-06-07T12:06:27.326Z,102194.16
2023-06-07T12:08:53.936Z,102183.31
2023-06-07T12:11:28.183Z,102187.31
2023-06-07T12:13:55.081Z,102187.72
2023-06-07T12:16:22.589Z,102172.50
2023-06-07T12:18:49.602Z,102181.34
2023-06-07T12:21:17.362Z,102163.25
2023-06-07T12:23:52.648Z,102178.13
2023-06-07T12:26:31.711Z,102168.84
2023-06-07T12:29:02.092Z,102172.44
2023-06-07T12:31:29.483Z,102173.28
2023-06-07T12:34:04.415Z,102167.66
2023-06-07T12:36:34.413Z,102174.91
2023-06-07T12:39:10.290Z,102170.84
2023-06-07T12:41:39.926Z,102171.25
2023-06-07T12:44:10.998Z,102164.84
2023-06-07T12:46:39.535Z,102160.84
2023-06-07T12:49:07.299Z,102154.38
2023-06-07T12:51:34.477Z,102162.38
2023-06-07T12:54:02.813Z,102148.31
2023-06-07T12:56:30.147Z,102149.53
2023-06-07T12:58:56.602Z,102154.34
2023-06-07T13:01:23.888Z,102151.19
2023-06-07T13:03:51.115Z,102141.84
2023-06-07T13:06:17.942Z,102141.78
2023-06-07T13:08:45.194Z,102146.28
2023-06-07T13:11:12.341Z,102143.47
2023-06-07T13:13:39.060Z,102132.63
2023-06-07T13:16:08.866Z,102139.09
2023-06-07T13:18:39.934Z,102144.34
2023-06-07T13:21:07.178Z,102137.13
2023-06-07T13:23:34.465Z,102130.69
2023-06-07T13:26:02.660Z,102131.09
2023-06-07T13:28:29.221Z,102119.84
2023-06-07T13:30:55.730Z,102135.09
2023-06-07T13:33:22.371Z,102132.28
2023-06-07T13:35:51.325Z,102120.66
2023-06-07T13:38:20.134Z,102117.84
2023-06-07T13:40:46.896Z,102112.63
2023-06-07T13:43:14.096Z,102109.78
2023-06-07T13:45:42.448Z,102117.03
2023-06-07T13:50:52.785Z,102104.56
2023-06-07T13:53:19.527Z,102107.38
2023-06-07T13:55:48.308Z,102106.19
2023-06-07T13:58:15.082Z,102102.97
2023-06-07T14:00:42.308Z,102104.13
2023-06-07T14:03:09.582Z,102102.53
2023-06-07T14:05:36.406Z,102098.94
2023-06-07T14:08:03.494Z,102097.31
2023-06-07T14:10:30.697Z,102089.72
2023-06-07T14:12:57.720Z,102092.94
2023-06-07T14:15:26.131Z,102090.47
2023-06-07T14:17:52.670Z,102088.88
2023-06-07T14:20:19.437Z,102081.66
2023-06-07T14:22:46.007Z,102065.97
2023-06-07T14:25:14.726Z,102077.97
2023-06-07T14:27:43.106Z,102079.59
2023-06-07T14:30:09.902Z,102079.56
2023-06-07T14:32:36.548Z,102078.00
2023-06-07T14:35:04.732Z,102074.75
2023-06-07T14:37:31.784Z,102075.97
2023-06-07T14:39:58.495Z,102074.38
2023-06-07T14:42:25.938Z,102079.56
2023-06-07T14:44:56.813Z,102078.69
2023-06-07T14:47:24.371Z,102077.91
2023-06-07T14:49:52.569Z,102075.88
2023-06-07T14:52:23.089Z,102071.44
2023-06-07T14:54:49.832Z,102073.78
2023-06-07T14:57:16.725Z,102064.09
2023-06-07T14:59:43.565Z,102064.16
2023-06-07T15:02:11.372Z,102069.06
2023-06-07T15:04:38.422Z,102066.63
2023-06-07T15:07:05.558Z,102060.25
2023-06-07T15:09:32.696Z,102064.69
2023-06-07T15:12:01.049Z,102054.63
2023-06-07T15:14:27.577Z,102058.56
2023-06-07T15:16:54.368Z,102056.94
2023-06-07T15:19:21.225Z,102066.16
2023-06-07T15:21:51.531Z,102060.88
2023-06-07T15:24:18.647Z,102067.72
2023-06-07T15:26:45.547Z,102064.94
2023-06-07T15:29:12.292Z,102060.06
2023-06-07T15:31:38.873Z,102063.25
2023-06-07T15:34:05.594Z,102057.53
2023-06-07T15:36:32.182Z,102057.91
2023-06-07T15:38:58.745Z,102049.47
2023-06-07T15:41:27.716Z,102051.81
2023-06-07T15:43:54.945Z,102043.75
2023-06-07T15:46:21.539Z,102043.69
2023-06-07T15:48:51.373Z,102035.28
2023-06-07T15:51:19.245Z,102043.69
2023-06-07T15:53:47.507Z,102039.22
2023-06-07T15:56:14.508Z,102038.78
2023-06-07T15:58:43.225Z,102036.00
2023-06-07T16:01:12.326Z,102032.34
2023-06-07T16:03:54.262Z,102033.16
2023-06-07T16:06:22.919Z,102036.34
2023-06-07T16:08:49.440Z,102034.69
2023-06-07T16:11:16.162Z,102030.56
2023-06-07T16:13:42.802Z,102033.75
2023-06-07T16:16:09.448Z,102031.59
2023-06-07T16:18:37.735Z,102038.63
2023-06-07T16:21:04.252Z,102024.09
2023-06-07T16:23:31.210Z,102040.38
2023-06-07T16:25:57.809Z,102027.53
2023-06-07T16:28:24.353Z,102029.94
2023-06-07T16:30:50.872Z,102028.75
2023-06-07T16:33:19.546Z,102019.94
2023-06-07T16:35:46.130Z,102013.06
2023-06-07T16:38:12.601Z,102015.09
2023-06-07T16:40:39.194Z,102006.72
2023-06-07T16:43:06.081Z,102017.06
2023-06-07T16:45:32.557Z,102013.13
2023-06-07T16:47:59.449Z,102015.53
2023-06-07T16:50:26.128Z,102021.31
2023-06-07T16:52:52.699Z,102013.19
2023-06-07T16:55:19.379Z,102018.25
2023-06-07T16:57:46.089Z,102014.59
2023-06-07T17:00:13.222Z,102010.91
2023-06-07T17:02:39.928Z,102008.47
2023-06-07T17:05:07.297Z,102005.50
2023-06-07T17:07:34.272Z,102005.09
2023-06-07T17:10:01.063Z,102008.63
2023-06-07T17:12:27.549Z,102003.84
2023-06-07T17:14:55.384Z,102006.28
2023-06-07T17:17:22.067Z,101997.88
2023-06-07T17:19:48.568Z,102005.75
2023-06-07T17:22:15.363Z,102003.25
2023-06-07T17:24:41.879Z,102000.75
2023-06-07T17:27:08.548Z,102001.44
2023-06-07T17:29:35.997Z,102009.38
2023-06-07T17:32:02.892Z,102005.41
2023-06-07T17:34:29.569Z,101997.00
2023-06-07T17:36:56.250Z,102002.38
2023-06-07T17:39:22.922Z,102009.16
2023-06-07T17:41:49.999Z,102003.72
2023-06-07T17:44:23.511Z,102006.03
2023-06-07T17:47:17.064Z,102004.75
2023-06-07T17:49:43.781Z,102012.16
2023-06-07T17:52:21.427Z,102011.25
2023-06-07T17:54:49.961Z,102010.19
2023-06-07T17:57:17.972Z,102007.03
2023-06-07T17:59:44.589Z,102009.69
2023-06-07T18:02:11.391Z,102008.38
2023-06-07T18:04:38.515Z,102015.66
2023-06-07T18:07:05.838Z,102019.19
2023-06-07T18:09:32.559Z,102011.09
2023-06-07T18:12:01.692Z,102015.34
2023-06-07T18:14:28.327Z,102008.38
2023-06-07T18:16:54.865Z,102008.06
2023-06-07T18:19:21.425Z,102010.44
2023-06-07T18:21:47.879Z,102016.00
2023-06-07T18:24:14.620Z,102010.28
2023-06-07T18:26:41.613Z,102014.09
2023-06-07T18:29:12.539Z,102016.44
2023-06-07T18:31:39.094Z,102016.44
2023-06-07T18:34:06.472Z,102013.97
2023-06-07T18:36:33.109Z,102017.78
2023-06-07T18:39:00.358Z,102017.94
2023-06-07T18:41:28.141Z,102021.59
2023-06-07T18:43:54.821Z,102023.50
2023-06-07T18:46:22.837Z,102014.41
2023-06-07T18:48:54.501Z,102022.19
2023-06-07T18:51:21.035Z,102024.50
2023-06-07T18:53:49.757Z,102022.06
2023-06-07T18:56:17.975Z,102021.91
2023-06-07T18:58:45.438Z,102024.97
2023-06-07T19:01:13.312Z,102013.31
2023-06-07T19:03:41.288Z,102027.16
2023-06-07T19:06:09.291Z,102024.38
2023-06-07T19:08:36.026Z,102023.94
2023-06-07T19:11:03.237Z,102019.03
2023-06-07T19:13:32.247Z,102026.41
2023-06-07T19:15:58.824Z,102031.00
2023-06-07T19:18:25.573Z,102033.25
2023-06-07T19:20:52.099Z,102031.03
2023-06-07T19:23:21.392Z,102034.09
2023-06-07T19:25:47.903Z,102039.50
2023-06-07T19:28:14.549Z,102031.03
2023-06-07T19:30:48.518Z,102032.56
2023-06-07T19:33:17.312Z,102041.47
2023-06-07T19:35:43.856Z,102038.06
2023-06-07T19:38:10.964Z,102038.44
2023-06-07T19:40:37.447Z,102045.06
2023-06-07T19:43:05.278Z,102047.41
2023-06-07T19:45:31.854Z,102052.06
2023-06-07T19:48:00.582Z,102051.63
2023-06-07T19:50:28.590Z,102046.31
2023-06-07T19:52:55.853Z,102054.47
2023-06-07T19:55:22.545Z,102054.72
2023-06-07T19:57:53.715Z,102051.66
2023-06-07T20:00:23.650Z,102049.00
2023-06-07T20:02:52.272Z,102052.50
2023-06-07T20:05:21.156Z,102053.22
2023-06-07T20:07:47.674Z,102046.31
2023-06-07T20:10:14.888Z,102053.28
2023-06-07T20:12:41.643Z,102051.91
2023-06-07T20:15:19.017Z,102057.38
2023-06-07T20:17:46.780Z,102056.34
2023-06-07T20:20:15.077Z,102057.78
2023-06-07T20:22:41.775Z,102058.50
2023-06-07T20:25:08.832Z,102066.38
2023-06-07T20:27:35.688Z,102066.59
2023-06-07T20:30:02.527Z,102069.88
2023-06-07T20:32:29.326Z,102069.41
2023-06-07T20:34:55.884Z,102061.53
2023-06-07T20:37:22.403Z,102069.19
2023-06-07T20:39:48.947Z,102074.28
2023-06-07T20:42:15.752Z,102077.06
2023-06-07T20:44:52.586Z,102065.38
2023-06-07T20:47:20.182Z,102074.84
2023-06-07T20:49:46.727Z,102074.78
2023-06-07T20:52:16.239Z,102078.47
2023-06-07T20:54:43.711Z,102079.16
2023-06-07T20:57:10.480Z,102091.50
2023-06-07T20:59:47.149Z,102093.50
2023-06-07T21:02:23.023Z,102098.31
2023-06-07T21:04:50.017Z,102095.53
2023-06-07T21:07:16.629Z,102091.38
2023-06-07T21:09:43.181Z,102099.06
2023-06-07T21:12:09.974Z,102094.81
2023-06-07T21:14:36.563Z,102095.00
2023-06-07T21:17:03.103Z,102102.03
2023-06-07T21:19:32.478Z,102093.84
2023-06-07T21:21:59.141Z,102097.50
2023-06-07T21:24:25.613Z,102097.25
2023-06-07T21:26:52.140Z,102099.69
2023-06-07T21:29:19.058Z,102097.59
2023-06-07T21:31:45.915Z,102102.53
2023-06-07T21:34:13.675Z,102102.19
2023-06-07T21:36:40.659Z,102095.69
2023-06-07T21:39:07.159Z,102105.13
2023-06-07T21:41:33.713Z,102106.63
2023-06-07T21:44:00.269Z,102109.13
2023-06-07T21:46:26.875Z,102112.50
2023-06-07T21:48:53.359Z,102108.66
2023-06-07T21:51:20.553Z,102115.88
2023-06-07T21:53:47.443Z,102109.19
2023-06-07T21:56:13.988Z,102114.72
2023-06-07T21:58:40.611Z,102106.94
2023-06-07T22:01:07.169Z,102105.31
2023-06-07T22:03:33.801Z,102112.53
2023-06-07T22:06:01.871Z,102111.44
2023-06-07T22:08:28.995Z,102113.88
2023-06-07T22:10:55.802Z,102110.28
2023-06-07T22:13:22.427Z,102109.00
2023-06-07T22:15:51.759Z,102113.75
2023-06-07T22:18:19.671Z,102108.22
2023-06-07T22:20:46.759Z,102102.13
2023-06-07T22:23:14.528Z,102095.81
2023-06-07T22:25:41.990Z,102096.00
2023-06-07T22:28:14.736Z,102105.63
2023-06-07T22:30:42.053Z,102098.47
2023-06-07T22:33:09.569Z,102101.56
2023-06-07T22:35:36.281Z,102102.69
2023-06-07T22:38:06.463Z,102100.94
2023-06-07T22:40:34.372Z,102100.00
2023-06-07T22:43:01.523Z,102088.44
2023-06-07T22:45:31.682Z,102095.78
2023-06-07T22:48:05.984Z,102095.16
2023-06-07T22:50:40.051Z,102094.31
2023-06-07T22:53:12.377Z,102097.94
2023-06-07T22:55:40.038Z,102098.59
2023-06-07T22:58:07.113Z,102092.72
2023-06-07T23:00:36.051Z,102099.25
2023-06-07T23:03:04.931Z,102089.03
2023-06-07T23:05:31.586Z,102092.44
2023-06-07T23:08:00.627Z,102098.78
2023-06-07T23:10:36.162Z,102100.56
2023-06-07T23:13:09.191Z,102099.44
2023-06-07T23:15:38.450Z,102102.38
2023-06-07T23:18:05.325Z,102100.25
2023-06-07T23:20:34.117Z,102096.34
2023-06-07T23:23:04.097Z,102097.00
2023-06-07T23:25:31.655Z,102097.66
2023-06-07T23:27:59.188Z,102095.25
2023-06-07T23:30:26.559Z,102103.22
2023-06-07T23:32:53.441Z,102095.41
2023-06-07T23:35:22.719Z,102093.78
2023-06-07T23:37:49.616Z,102091.19
2023-06-07T23:40:17.047Z,102085.97
2023-06-07T23:42:44.934Z,102082.88
2023-06-07T23:45:12.654Z,102088.59
2023-06-07T23:47:39.257Z,102086.66
2023-06-07T23:50:07.625Z,102081.94
2023-06-07T23:52:35.345Z,102083.56
2023-06-07T23:55:02.492Z,102080.63
2023-06-07T23:57:29.058Z,102078.34
2023-06-07T23:59:56.305Z,102084.34
